createdAt,value
2023-01-31T00:01:08.816Z,14.25
2023-01-31T00:03:37.406Z,14.75
2023-01-31T00:06:17.973Z,14.50
2023-01-31T00:08:46.191Z,13.00
2023-01-31T00:11:14.142Z,15.00
2023-01-31T00:13:42.290Z,15.00
2023-01-31T00:16:10.389Z,14.75
2023-01-31T00:18:39.377Z,15.00
2023-01-31T00:21:09.260Z,12.50
2023-01-31T00:23:39.074Z,11.25
2023-01-31T00:26:14.787Z,11.25
2023-01-31T00:28:43.040Z,12.00
2023-01-31T00:31:11.261Z,13.75
2023-01-31T00:33:39.929Z,11.00
2023-01-31T00:36:09.064Z,10.50
2023-01-31T00:38:38.895Z,12.00
2023-01-31T00:41:06.896Z,11.00
2023-01-31T00:43:35.402Z,10.25
2023-01-31T00:46:03.415Z,10.00
2023-01-31T00:48:31.409Z,10.00
2023-01-31T00:50:59.306Z,10.75
2023-01-31T00:53:27.586Z,9.00
2023-01-31T00:56:02.360Z,10.50
2023-01-31T00:58:30.226Z,8.25
2023-01-31T01:00:58.160Z,11.25
2023-01-31T01:03:26.467Z,10.00
2023-01-31T01:05:54.312Z,10.00
2023-01-31T01:08:22.161Z,10.00
2023-01-31T01:10:50.089Z,9.00
2023-01-31T01:13:19.601Z,7.50
2023-01-31T01:15:47.472Z,9.25
2023-01-31T01:18:15.930Z,7.00
2023-01-31T01:20:43.867Z,8.00
2023-01-31T01:23:12.189Z,8.75
2023-01-31T01:25:44.078Z,9.00
2023-01-31T01:28:12.559Z,7.00
2023-01-31T01:30:41.869Z,7.75
2023-01-31T01:33:10.457Z,8.00
2023-01-31T01:35:38.318Z,8.50
2023-01-31T01:38:06.170Z,8.00
2023-01-31T01:40:37.220Z,8.25
2023-01-31T01:43:05.397Z,8.50
2023-01-31T01:45:33.370Z,7.25
2023-01-31T01:48:04.974Z,7.50
2023-01-31T01:50:35.200Z,6.00
2023-01-31T01:53:06.161Z,7.00
2023-01-31T01:55:36.209Z,6.00
2023-01-31T01:58:05.615Z,6.00
2023-01-31T02:00:33.534Z,6.00
2023-01-31T02:03:03.499Z,6.00
2023-01-31T02:05:33.492Z,6.00
2023-01-31T02:08:01.443Z,6.00
2023-01-31T02:10:31.607Z,7.00
2023-01-31T02:12:59.902Z,5.25
2023-01-31T02:15:28.123Z,5.75
2023-01-31T02:17:56.087Z,6.00
2023-01-31T02:20:34.937Z,6.00
2023-01-31T02:23:14.580Z,6.25
2023-01-31T02:26:21.372Z,7.50
2023-01-31T02:29:04.333Z,5.00
2023-01-31T02:32:11.678Z,3.75
2023-01-31T02:34:43.382Z,6.00
2023-01-31T02:37:18.165Z,4.75
2023-01-31T02:39:51.972Z,4.75
2023-01-31T02:42:23.817Z,5.00
2023-01-31T02:45:02.410Z,5.00
2023-01-31T02:47:40.832Z,5.00
2023-01-31T02:50:14.005Z,4.25
2023-01-31T02:52:46.790Z,4.00
2023-01-31T02:55:34.926Z,5.00
2023-01-31T02:58:04.167Z,4.00
2023-01-31T03:00:33.328Z,4.25
2023-01-31T03:03:01.498Z,4.25
2023-01-31T03:05:30.829Z,5.50
2023-01-31T03:07:59.737Z,5.00
2023-01-31T03:10:46.780Z,4.25
2023-01-31T03:13:34.140Z,3.75
2023-01-31T03:16:25.111Z,5.00
2023-01-31T03:18:56.851Z,5.00
2023-01-31T03:21:27.823Z,5.00
2023-01-31T03:23:56.438Z,5.75
2023-01-31T03:26:24.462Z,3.00
2023-01-31T03:28:57.269Z,5.00
2023-01-31T03:31:26.579Z,4.50
2023-01-31T03:33:56.689Z,3.00
2023-01-31T03:36:30.020Z,4.25
2023-01-31T03:39:02.950Z,5.00
2023-01-31T03:41:35.946Z,5.00
2023-01-31T03:44:07.066Z,4.50
2023-01-31T03:46:36.935Z,3.25
2023-01-31T03:49:08.851Z,3.25
2023-01-31T03:51:38.989Z,4.25
2023-01-31T03:54:08.104Z,4.50
2023-01-31T03:56:37.694Z,3.00
2023-01-31T03:59:08.214Z,4.00
2023-01-31T04:01:37.112Z,3.50
2023-01-31T04:04:08.778Z,3.00
2023-01-31T04:06:38.053Z,4.25
2023-01-31T04:09:06.042Z,3.75
2023-01-31T04:11:37.362Z,4.00
2023-01-31T04:14:05.582Z,4.00
2023-01-31T04:16:33.494Z,4.00
2023-01-31T04:19:01.404Z,3.25
2023-01-31T04:21:29.313Z,3.25
2023-01-31T04:23:58.824Z,4.00
2023-01-31T04:26:26.760Z,2.50
2023-01-31T04:28:54.667Z,4.25
2023-01-31T04:31:22.615Z,3.00
2023-01-31T04:33:50.868Z,3.00
2023-01-31T04:36:18.721Z,3.00
2023-01-31T04:38:46.578Z,4.00
2023-01-31T04:41:15.880Z,4.00
2023-01-31T04:43:44.025Z,3.00
2023-01-31T04:46:11.994Z,3.00
2023-01-31T04:48:41.328Z,3.75
2023-01-31T04:51:09.709Z,3.00
2023-01-31T04:53:37.903Z,4.00
2023-01-31T04:56:06.901Z,3.50
2023-01-31T04:58:36.788Z,4.00
2023-01-31T05:01:04.772Z,3.00
2023-01-31T05:03:33.036Z,3.25
2023-01-31T05:06:00.914Z,3.00
2023-01-31T05:08:29.466Z,2.75
2023-01-31T05:11:02.319Z,3.00
2023-01-31T05:13:32.831Z,3.75
2023-01-31T05:16:02.332Z,3.00
2023-01-31T05:18:30.211Z,3.00
2023-01-31T05:20:58.107Z,3.50
2023-01-31T05:23:26.435Z,3.00
2023-01-31T05:25:54.358Z,4.00
2023-01-31T05:28:24.004Z,4.75
2023-01-31T05:30:51.963Z,5.75
2023-01-31T05:33:21.762Z,7.00
2023-01-31T05:35:49.796Z,9.00
2023-01-31T05:38:17.712Z,9.00
2023-01-31T05:40:45.578Z,12.00
2023-01-31T05:43:13.763Z,11.00
2023-01-31T05:45:41.751Z,15.00
2023-01-31T05:48:10.087Z,14.75
2023-01-31T05:50:39.372Z,15.25
2023-01-31T05:53:09.204Z,15.25
2023-01-31T05:55:37.070Z,17.50
2023-01-31T05:58:04.984Z,18.75
2023-01-31T06:00:33.390Z,17.75
2023-01-31T06:03:01.662Z,19.50
2023-01-31T06:05:29.670Z,20.50
2023-01-31T06:07:59.102Z,21.25
2023-01-31T06:10:27.098Z,21.50
2023-01-31T06:12:55.303Z,20.50
2023-01-31T06:15:23.387Z,20.00
2023-01-31T06:17:51.817Z,23.25
2023-01-31T06:20:19.782Z,22.25
2023-01-31T06:22:48.137Z,21.25
2023-01-31T06:25:17.785Z,20.00
2023-01-31T06:27:45.693Z,22.25
2023-01-31T06:30:14.398Z,20.50
2023-01-31T06:32:42.584Z,23.25
2023-01-31T06:35:10.978Z,21.00
2023-01-31T06:37:38.851Z,21.25
2023-01-31T06:40:07.628Z,20.50
2023-01-31T06:42:37.236Z,24.00
2023-01-31T06:45:05.708Z,22.50
2023-01-31T06:47:34.176Z,22.25
2023-01-31T06:50:02.105Z,20.75
2023-01-31T06:52:30.638Z,20.00
2023-01-31T06:54:58.546Z,19.75
2023-01-31T06:57:26.414Z,19.50
2023-01-31T06:59:55.720Z,19.00
2023-01-31T07:02:23.916Z,19.00
2023-01-31T07:04:52.270Z,20.25
2023-01-31T07:07:20.214Z,19.25
2023-01-31T07:09:48.110Z,19.00
2023-01-31T07:12:16.245Z,18.00
2023-01-31T07:14:44.173Z,16.75
2023-01-31T07:17:13.525Z,15.75
2023-01-31T07:19:41.382Z,18.00
2023-01-31T07:22:09.562Z,18.00
2023-01-31T07:24:37.475Z,16.25
2023-01-31T07:27:05.494Z,15.25
2023-01-31T07:29:33.610Z,15.75
2023-01-31T07:32:01.891Z,17.75
2023-01-31T07:34:31.272Z,13.75
2023-01-31T07:37:01.192Z,13.75
2023-01-31T07:39:29.934Z,16.25
2023-01-31T07:41:58.322Z,12.75
2023-01-31T07:44:26.501Z,15.00
2023-01-31T07:46:56.489Z,13.75
2023-01-31T07:49:24.431Z,13.25
2023-01-31T07:51:53.835Z,13.50
2023-01-31T07:54:21.731Z,13.25
2023-01-31T07:56:49.614Z,12.75
2023-01-31T07:59:17.761Z,13.00
2023-01-31T08:02:03.302Z,12.25
2023-01-31T08:04:31.304Z,12.00
2023-01-31T08:07:02.979Z,11.50
2023-01-31T08:09:30.936Z,11.25
2023-01-31T08:11:59.096Z,11.00
2023-01-31T08:14:28.281Z,11.50
2023-01-31T08:16:56.621Z,11.75
2023-01-31T08:19:24.496Z,10.75
2023-01-31T08:21:52.689Z,10.50
2023-01-31T08:24:22.008Z,10.00
2023-01-31T08:26:49.952Z,9.00
2023-01-31T08:29:17.892Z,10.00
2023-01-31T08:31:46.274Z,9.00
2023-01-31T08:34:14.173Z,10.00
2023-01-31T08:36:42.046Z,10.50
2023-01-31T08:39:10.043Z,10.00
2023-01-31T08:41:39.850Z,10.00
2023-01-31T08:44:08.038Z,9.75
2023-01-31T08:46:37.184Z,10.00
2023-01-31T08:49:05.986Z,9.00
2023-01-31T08:51:34.133Z,10.00
2023-01-31T08:54:02.119Z,8.00
2023-01-31T08:56:30.307Z,10.25
2023-01-31T08:58:59.609Z,8.00
2023-01-31T09:01:27.624Z,7.25
2023-01-31T09:03:57.227Z,7.75
2023-01-31T09:06:27.064Z,8.75
2023-01-31T09:08:56.715Z,7.00
2023-01-31T09:11:24.599Z,7.00
2023-01-31T09:13:52.923Z,7.00
2023-01-31T09:16:22.260Z,7.25
2023-01-31T09:18:50.198Z,6.50
2023-01-31T09:21:19.144Z,6.50
2023-01-31T09:23:47.340Z,6.50
2023-01-31T09:26:15.256Z,7.75
2023-01-31T09:28:43.493Z,6.00
2023-01-31T09:31:12.803Z,6.00
2023-01-31T09:33:42.440Z,6.25
2023-01-31T09:36:11.462Z,6.50
2023-01-31T09:38:40.213Z,7.00
2023-01-31T09:41:14.397Z,6.00
2023-01-31T09:43:44.506Z,6.00
2023-01-31T09:46:14.949Z,6.50
2023-01-31T09:48:45.460Z,6.25
2023-01-31T09:51:13.473Z,5.00
2023-01-31T09:53:41.888Z,6.00
2023-01-31T09:56:21.920Z,6.00
2023-01-31T09:58:56.099Z,6.00
2023-01-31T10:01:26.002Z,6.00
2023-01-31T10:04:04.267Z,6.00
2023-01-31T10:06:34.309Z,6.00
2023-01-31T10:09:05.144Z,6.00
2023-01-31T10:11:37.714Z,6.00
2023-01-31T10:14:21.704Z,5.00
2023-01-31T10:16:56.105Z,5.25
2023-01-31T10:19:27.294Z,6.00
2023-01-31T10:21:55.753Z,5.00
2023-01-31T10:24:26.049Z,4.25
2023-01-31T10:26:54.409Z,4.75
2023-01-31T10:29:27.273Z,5.00
2023-01-31T10:32:06.119Z,4.00
2023-01-31T12:47:23.061Z,5.00
2023-01-31T12:50:19.215Z,3.00
2023-01-31T12:52:52.231Z,3.25
2023-01-31T12:55:24.473Z,3.00
2023-01-31T12:57:56.755Z,3.00
2023-01-31T13:00:32.398Z,3.00
2023-01-31T13:03:18.474Z,2.75
2023-01-31T13:05:48.140Z,3.00
2023-01-31T13:08:18.604Z,3.00
2023-01-31T13:10:47.120Z,3.25
2023-01-31T13:13:19.070Z,3.75
2023-01-31T13:15:49.657Z,3.00
2023-01-31T13:18:19.771Z,4.00
2023-01-31T13:20:49.832Z,3.00
2023-01-31T13:23:20.047Z,3.50
2023-01-31T13:25:51.278Z,3.00
2023-01-31T13:28:21.142Z,3.75
2023-01-31T13:30:52.197Z,3.00
2023-01-31T13:33:26.615Z,3.00
2023-01-31T13:36:00.311Z,4.00
2023-01-31T13:38:28.933Z,3.00
2023-01-31T13:40:57.574Z,3.00
2023-01-31T13:43:25.476Z,3.50
2023-01-31T13:45:54.916Z,3.00
2023-01-31T13:48:27.055Z,3.00
2023-01-31T13:50:56.024Z,3.25
2023-01-31T13:53:26.581Z,3.00
2023-01-31T13:55:54.749Z,3.00
2023-01-31T13:58:23.787Z,3.25
2023-01-31T14:00:59.145Z,3.25
2023-01-31T14:03:28.518Z,3.00
2023-01-31T14:05:58.414Z,4.00
2023-01-31T14:08:36.979Z,3.00
2023-01-31T14:11:05.122Z,3.00
2023-01-31T14:13:43.480Z,3.50
2023-01-31T14:16:37.150Z,3.00
2023-01-31T14:19:07.138Z,3.00
2023-01-31T14:21:57.879Z,3.00
2023-01-31T14:25:05.426Z,3.00
2023-01-31T14:27:38.898Z,4.00
2023-01-31T14:30:24.969Z,4.50
2023-01-31T14:33:03.351Z,2.75
2023-01-31T14:35:48.617Z,3.50
2023-01-31T14:38:18.340Z,4.00
2023-01-31T14:40:48.880Z,3.25
2023-01-31T14:43:47.093Z,3.50
2023-01-31T14:46:28.919Z,3.50
2023-01-31T14:49:30.432Z,3.00
2023-01-31T14:52:23.558Z,5.00
2023-01-31T14:55:02.242Z,3.50
2023-01-31T14:57:30.667Z,3.00
2023-01-31T14:59:59.780Z,3.00
2023-01-31T15:02:43.248Z,3.00
2023-01-31T15:05:12.254Z,4.00
2023-01-31T15:08:07.122Z,3.00
2023-01-31T15:10:58.166Z,3.50
2023-01-31T15:13:37.859Z,3.75
2023-01-31T15:16:07.429Z,3.00
2023-01-31T15:18:35.331Z,3.00
2023-01-31T15:21:05.099Z,3.25
2023-01-31T15:23:34.871Z,3.75
2023-01-31T15:26:03.144Z,3.00
2023-01-31T15:28:31.712Z,4.00
2023-01-31T15:31:01.118Z,3.50
2023-01-31T15:33:31.252Z,4.00
2023-01-31T15:36:00.450Z,4.00
2023-01-31T15:38:30.160Z,4.00
2023-01-31T15:41:20.115Z,3.25
2023-01-31T15:43:48.085Z,5.00
2023-01-31T15:46:22.148Z,4.50
2023-01-31T15:48:50.182Z,4.00
2023-01-31T15:51:18.472Z,4.00
2023-01-31T15:53:47.338Z,3.00
2023-01-31T15:56:19.769Z,3.25
2023-01-31T15:58:48.470Z,3.00
2023-01-31T16:01:16.930Z,3.00
2023-01-31T16:03:51.975Z,3.75
2023-01-31T16:06:23.811Z,4.00
2023-01-31T16:09:00.932Z,3.50
2023-01-31T16:11:33.650Z,4.00
2023-01-31T16:14:02.937Z,4.00
2023-01-31T16:16:30.972Z,3.25
2023-01-31T16:18:59.369Z,3.00
2023-01-31T16:21:28.856Z,3.00
2023-01-31T16:24:03.897Z,3.75
2023-01-31T16:26:34.925Z,4.00
2023-01-31T16:29:08.376Z,3.00
2023-01-31T16:31:37.466Z,4.00
2023-01-31T16:34:06.766Z,4.00
2023-01-31T16:36:35.587Z,3.50
2023-01-31T16:39:04.938Z,4.00
2023-01-31T16:41:47.506Z,3.75
2023-01-31T16:44:16.721Z,4.00
2023-01-31T16:46:46.053Z,3.75
2023-01-31T16:49:22.266Z,3.00
2023-01-31T16:51:50.376Z,4.00
2023-01-31T16:54:20.377Z,4.00
2023-01-31T16:59:40.952Z,3.50
2023-01-31T17:02:14.925Z,4.50
2023-01-31T17:04:43.193Z,3.25
2023-01-31T17:07:15.745Z,4.00
2023-01-31T17:09:43.613Z,5.00
2023-01-31T17:12:24.079Z,4.75
2023-01-31T17:14:57.107Z,4.00
2023-01-31T17:17:26.716Z,4.00
2023-01-31T17:19:54.591Z,5.00
2023-01-31T17:22:23.051Z,5.75
2023-01-31T17:24:51.402Z,4.50
2023-01-31T17:27:21.312Z,4.75
2023-01-31T17:29:49.371Z,5.75
2023-01-31T17:32:18.326Z,4.50
2023-01-31T17:34:48.260Z,5.00
2023-01-31T17:37:18.138Z,4.75
2023-01-31T17:39:48.857Z,5.00
2023-01-31T17:42:18.857Z,4.00
2023-01-31T17:44:48.220Z,5.00
2023-01-31T17:47:16.448Z,4.75
2023-01-31T17:49:45.261Z,5.75
2023-01-31T17:52:13.317Z,5.00
2023-01-31T17:54:41.548Z,5.00
2023-01-31T17:57:09.434Z,6.00
2023-01-31T17:59:37.330Z,5.00
2023-01-31T18:02:06.686Z,5.75
2023-01-31T18:04:34.951Z,4.00
2023-01-31T18:07:02.824Z,4.00
2023-01-31T18:09:30.832Z,6.75
2023-01-31T18:11:58.692Z,6.00
2023-01-31T18:14:26.896Z,6.00
2023-01-31T18:16:54.794Z,7.25
2023-01-31T18:19:24.204Z,8.00
2023-01-31T18:21:55.308Z,7.50
2023-01-31T18:24:24.118Z,10.00
2023-01-31T18:26:52.150Z,11.00
2023-01-31T18:29:21.152Z,11.75
2023-01-31T18:31:49.211Z,12.00
2023-01-31T18:34:17.455Z,12.50
2023-01-31T18:36:46.780Z,13.50
2023-01-31T18:39:14.691Z,11.75
2023-01-31T18:41:42.758Z,13.00
2023-01-31T18:44:10.905Z,12.25
2023-01-31T18:46:39.027Z,14.00
2023-01-31T18:49:06.984Z,13.25
2023-01-31T18:51:34.865Z,13.50
2023-01-31T18:54:04.925Z,14.25
2023-01-31T18:56:32.832Z,13.75
2023-01-31T18:59:00.703Z,16.50
2023-01-31T19:01:29.765Z,16.00
2023-01-31T19:03:58.664Z,17.00
2023-01-31T19:06:27.931Z,17.75
2023-01-31T19:08:56.559Z,19.50
2023-01-31T19:11:26.822Z,18.25
2023-01-31T19:13:55.259Z,18.75
2023-01-31T19:16:24.149Z,16.00
2023-01-31T19:18:52.101Z,17.75
2023-01-31T19:21:20.768Z,19.00
2023-01-31T19:23:48.925Z,20.00
2023-01-31T19:26:17.686Z,22.50
2023-01-31T19:28:47.282Z,22.25
2023-01-31T19:31:16.214Z,21.75
2023-01-31T19:33:44.381Z,23.75
2023-01-31T19:36:12.693Z,18.75
2023-01-31T19:38:40.850Z,22.50
2023-01-31T19:41:09.172Z,22.00
2023-01-31T19:43:37.087Z,23.00
2023-01-31T19:46:06.879Z,21.75
2023-01-31T19:48:34.807Z,21.00
2023-01-31T19:51:07.319Z,21.00
2023-01-31T19:53:35.196Z,22.00
2023-01-31T19:56:03.435Z,20.50
2023-01-31T19:58:32.200Z,22.75
2023-01-31T20:01:00.325Z,19.50
2023-01-31T20:03:29.607Z,22.00
2023-01-31T20:06:02.185Z,22.00
2023-01-31T20:08:30.827Z,24.00
2023-01-31T20:10:58.777Z,23.75
2023-01-31T20:13:26.771Z,22.00
2023-01-31T20:15:58.705Z,21.50
2023-01-31T20:18:26.619Z,21.75
2023-01-31T20:20:55.900Z,22.25
2023-01-31T20:23:24.333Z,24.75
2023-01-31T20:25:53.215Z,24.50
2023-01-31T20:28:21.323Z,22.00
2023-01-31T20:30:49.478Z,25.25
2023-01-31T20:33:17.541Z,24.00
2023-01-31T20:35:45.859Z,22.25
2023-01-31T20:38:17.225Z,23.00
2023-01-31T20:40:50.093Z,23.50
2023-01-31T20:43:18.017Z,22.00
2023-01-31T20:45:46.366Z,24.00
2023-01-31T20:48:14.357Z,22.00
2023-01-31T20:50:42.273Z,23.75
2023-01-31T20:53:18.022Z,24.00
2023-01-31T20:55:47.017Z,23.00
2023-01-31T20:58:14.928Z,22.75
2023-01-31T21:00:42.801Z,20.75
2023-01-31T21:03:10.732Z,22.25
2023-01-31T21:05:39.344Z,19.25
2023-01-31T21:08:07.539Z,21.50
2023-01-31T21:10:36.814Z,22.50
2023-01-31T21:13:05.443Z,21.00
2023-01-31T21:15:33.712Z,17.25
2023-01-31T21:18:01.665Z,18.50
2023-01-31T21:20:29.548Z,20.75
2023-01-31T21:22:57.463Z,16.25
2023-01-31T21:25:25.646Z,20.00
2023-01-31T21:27:54.906Z,19.00
2023-01-31T21:30:23.141Z,18.00
2023-01-31T21:32:51.198Z,18.75
2023-01-31T21:35:19.382Z,19.25
2023-01-31T21:37:49.058Z,16.50
2023-01-31T21:40:17.181Z,18.00
2023-01-31T21:42:44.063Z,18.75
2023-01-31T21:45:13.915Z,16.00
2023-01-31T21:47:55.729Z,18.00
2023-01-31T21:50:23.820Z,16.75
2023-01-31T21:52:51.811Z,16.00
2023-01-31T21:55:19.986Z,14.00
2023-01-31T21:57:47.987Z,14.00
2023-01-31T22:00:19.525Z,15.00
2023-01-31T22:02:52.360Z,15.00
2023-01-31T22:05:20.560Z,14.00
2023-01-31T22:07:48.557Z,14.25
2023-01-31T22:10:16.676Z,15.75
2023-01-31T22:12:44.589Z,14.25
2023-01-31T22:15:12.938Z,15.00
2023-01-31T22:17:42.245Z,14.00
2023-01-31T22:20:11.916Z,14.25
2023-01-31T22:22:39.861Z,12.50
2023-01-31T22:25:08.847Z,13.00
2023-01-31T22:27:36.735Z,15.00
2023-01-31T22:30:15.784Z,21.50
2023-01-31T22:32:45.646Z,14.00
2023-01-31T22:35:13.848Z,14.75
2023-01-31T22:37:42.343Z,14.75
2023-01-31T22:40:11.769Z,15.00
2023-01-31T22:42:39.611Z,14.00
2023-01-31T22:45:14.249Z,18.00
2023-01-31T22:47:42.152Z,17.00
2023-01-31T22:50:12.352Z,18.75
2023-01-31T22:52:40.278Z,22.00
2023-01-31T22:55:08.874Z,24.75
2023-01-31T22:57:36.738Z,23.50
2023-01-31T23:00:05.579Z,24.00
2023-01-31T23:02:33.493Z,25.00
2023-01-31T23:05:01.674Z,25.50
2023-01-31T23:07:30.979Z,26.25
2023-01-31T23:09:58.809Z,27.75
2023-01-31T23:12:26.699Z,26.25
2023-01-31T23:14:54.914Z,24.75
2023-01-31T23:17:42.300Z,26.25
2023-01-31T23:20:11.924Z,25.75
2023-01-31T23:22:41.386Z,25.00
2023-01-31T23:25:11.003Z,29.50
2023-01-31T23:27:39.298Z,25.75
2023-01-31T23:30:09.895Z,24.75
2023-01-31T23:32:37.774Z,27.00
2023-01-31T23:35:06.601Z,26.75
2023-01-31T23:37:34.798Z,24.75
2023-01-31T23:40:04.123Z,25.50
2023-01-31T23:42:32.035Z,25.25
2023-01-31T23:45:00.213Z,23.50
2023-01-31T23:47:28.140Z,23.25
2023-01-31T23:49:56.072Z,25.25
2023-01-31T23:52:23.964Z,21.00
2023-01-31T23:54:52.116Z,22.50
2023-01-31T23:57:21.471Z,20.50
2023-01-31T23:59:49.359Z,21.00
